Time;durP1;ratioP1;P1;durP2;ratioP2;P2;SDS_P1;SDS_P2;PMS_P1;PMS_P2;Temp;Humidity;BMP_temperature;BMP_pressure;BME280_temperature;BME280_humidity;BME280_pressure;Samples;Min_cycle;Max_cycle;Signal;HPM_P1;HPM_P2
2022/12/05 00:02:18;;;;;;;20.13;12.30;;;;;;;;;;5054658;28;20535;-39
2022/12/05 00:04:45;;;;;;;26.57;13.67;;;;;;;;;;5054276;28;20252;-39
2022/12/05 00:07:12;;;;;;;20.40;12.20;;;;;;;;;;5054370;28;20528;-39
2022/12/05 00:09:39;;;;;;;34.57;18.13;;;;;;;;;;5054092;28;20625;-39
2022/12/05 00:12:06;;;;;;;41.20;16.50;;;;;;;;;;5054197;28;20203;-38
2022/12/05 00:14:33;;;;;;;31.70;14.53;;;;;;;;;;5054088;28;20219;-38
2022/12/05 00:17:00;;;;;;;22.80;12.27;;;;;;;;;;5054326;28;20219;-39
2022/12/05 00:19:27;;;;;;;23.97;11.63;;;;;;;;;;5054390;28;20200;-38
2022/12/05 00:21:56;;;;;;;24.30;13.27;;;;;;;;;;5054245;28;20771;-39
2022/12/05 00:24:23;;;;;;;17.23;10.53;;;;;;;;;;5054073;28;20236;-39
2022/12/05 00:26:50;;;;;;;18.57;12.10;;;;;;;;;;5054843;28;20208;-39
2022/12/05 00:29:17;;;;;;;19.90;12.43;;;;;;;;;;5054014;28;20571;-39
2022/12/05 00:31:44;;;;;;;20.70;11.47;;;;;;;;;;5057264;28;20230;-39
2022/12/05 00:34:11;;;;;;;26.33;13.07;;;;;;;;;;5058137;28;20208;-39
2022/12/05 00:36:38;;;;;;;23.13;12.20;;;;;;;;;;5057430;28;20203;-40
2022/12/05 00:39:08;;;;;;;22.60;12.80;;;;;;;;;;5057424;28;20196;-38
2022/12/05 00:41:35;;;;;;;20.40;11.27;;;;;;;;;;5057673;28;20211;-39
2022/12/05 00:44:03;;;;;;;17.67;11.00;;;;;;;;;;5057905;28;20254;-38
2022/12/05 00:46:31;;;;;;;20.07;12.40;;;;;;;;;;5057374;28;20212;-39
2022/12/05 00:49:00;;;;;;;15.53;10.63;;;;;;;;;;5057475;28;20273;-38
2022/12/05 00:51:33;;;;;;;17.13;10.70;;;;;;;;;;5057171;28;20211;-39
2022/12/05 00:54:03;;;;;;;15.80;10.43;;;;;;;;;;5057632;28;20266;-38
2022/12/05 00:56:31;;;;;;;20.73;10.93;;;;;;;;;;5057781;28;20219;-39
2022/12/05 00:58:59;;;;;;;30.77;13.87;;;;;;;;;;5057047;28;20200;-39
2022/12/05 01:01:46;;;;;;;31.17;14.37;;;;;;;;;;5057588;28;20207;-39
2022/12/05 01:04:17;;;;;;;28.60;12.97;;;;;;;;;;5057664;28;20232;-38
2022/12/05 01:06:44;;;;;;;22.83;12.10;;;;;;;;;;5056980;28;20695;-39
2022/12/05 01:09:16;;;;;;;23.80;15.10;;;;;;;;;;5057514;28;20200;-39
2022/12/05 01:11:43;;;;;;;17.90;11.47;;;;;;;;;;5057394;28;20188;-39
2022/12/05 01:14:11;;;;;;;19.27;12.73;;;;;;;;;;5056673;28;20636;-39
2022/12/05 01:16:40;;;;;;;27.53;17.57;;;;;;;;;;5056951;28;20219;-39
2022/12/05 01:19:12;;;;;;;24.47;12.30;;;;;;;;;;5057077;28;20200;-38
2022/12/05 01:21:40;;;;;;;29.30;13.80;;;;;;;;;;5056065;28;20200;-38
2022/12/05 01:24:07;;;;;;;25.37;12.33;;;;;;;;;;5056824;28;20232;-39
2022/12/05 01:26:34;;;;;;;21.60;11.63;;;;;;;;;;5056539;28;20196;-38
2022/12/05 01:29:02;;;;;;;20.67;11.80;;;;;;;;;;5056635;28;20203;-39
2022/12/05 01:31:32;;;;;;;21.60;11.70;;;;;;;;;;5056477;28;20204;-39
2022/12/05 01:34:00;;;;;;;17.97;11.10;;;;;;;;;;5056756;28;20563;-38
2022/12/05 01:36:28;;;;;;;16.00;10.73;;;;;;;;;;5056381;28;20200;-39
2022/12/05 01:38:55;;;;;;;15.90;9.77;;;;;;;;;;5056684;28;20262;-38
2022/12/05 01:41:25;;;;;;;15.40;9.87;;;;;;;;;;5056390;28;20504;-38
2022/12/05 01:44:04;;;;;;;30.57;14.63;;;;;;;;;;5056148;28;20228;-38
2022/12/05 01:46:37;;;;;;;24.90;12.30;;;;;;;;;;5056972;28;20203;-41
2022/12/05 01:49:10;;;;;;;21.00;11.80;;;;;;;;;;5049041;28;20210;-39
2022/12/05 01:51:38;;;;;;;24.90;12.27;;;;;;;;;;5016742;28;20248;-39
2022/12/05 01:54:06;;;;;;;22.10;12.77;;;;;;;;;;5015523;28;20213;-39
2022/12/05 01:56:34;;;;;;;27.47;14.83;;;;;;;;;;5016362;28;20201;-40
2022/12/05 01:59:03;;;;;;;23.40;13.77;;;;;;;;;;5016022;28;20534;-39
2022/12/05 02:01:30;;;;;;;20.13;12.60;;;;;;;;;;5015608;28;20279;-39
2022/12/05 02:03:57;;;;;;;18.03;11.07;;;;;;;;;;5015682;28;20218;-38
2022/12/05 02:06:26;;;;;;;19.17;11.23;;;;;;;;;;5016360;28;20206;-39
2022/12/05 02:08:53;;;;;;;20.67;11.70;;;;;;;;;;5016064;28;20210;-39
2022/12/05 02:11:22;;;;;;;35.07;14.53;;;;;;;;;;5016439;28;20213;-40
2022/12/05 02:14:08;;;;;;;29.93;13.83;;;;;;;;;;5015458;28;20308;-38
2022/12/05 02:16:50;;;;;;;24.27;12.67;;;;;;;;;;5015310;28;20212;-39
2022/12/05 02:19:36;;;;;;;21.53;10.67;;;;;;;;;;5015956;28;20708;-38
2022/12/05 02:22:06;;;;;;;19.07;12.23;;;;;;;;;;5016270;28;20216;-40
2022/12/05 02:25:10;;;;;;;17.60;11.00;;;;;;;;;;5015939;28;20245;-38
2022/12/05 02:28:02;;;;;;;21.83;10.57;;;;;;;;;;5016264;28;20192;-39
2022/12/05 02:30:53;;;;;;;21.73;11.50;;;;;;;;;;5016372;28;20252;-38
2022/12/05 02:33:23;;;;;;;36.00;13.93;;;;;;;;;;5010687;28;20213;-39
2022/12/05 02:36:08;;;;;;;31.77;13.53;;;;;;;;;;5015454;28;20215;-38
2022/12/05 02:38:44;;;;;;;25.30;11.97;;;;;;;;;;5016028;28;20216;-39
2022/12/05 02:41:20;;;;;;;26.07;11.93;;;;;;;;;;5015023;28;20186;-39
2022/12/05 02:43:55;;;;;;;27.13;12.23;;;;;;;;;;5015709;28;20229;-39
2022/12/05 02:46:23;;;;;;;21.00;12.50;;;;;;;;;;5015520;28;20190;-38
2022/12/05 02:48:55;;;;;;;15.23;10.03;;;;;;;;;;5014901;28;20205;-43
2022/12/05 02:51:24;;;;;;;17.47;10.57;;;;;;;;;;5014646;28;20198;-38
2022/12/05 02:53:53;;;;;;;18.20;10.40;;;;;;;;;;5015348;28;20290;-39
2022/12/05 02:56:20;;;;;;;31.40;12.23;;;;;;;;;;5015465;28;20216;-39
2022/12/05 02:58:52;;;;;;;26.87;12.07;;;;;;;;;;5015540;28;20270;-38
2022/12/05 03:01:20;;;;;;;24.17;11.37;;;;;;;;;;5015520;28;20231;-38
2022/12/05 03:03:48;;;;;;;24.50;12.83;;;;;;;;;;5014894;28;20236;-39
2022/12/05 03:06:19;;;;;;;19.30;10.20;;;;;;;;;;5015528;28;20197;-40
2022/12/05 03:09:04;;;;;;;22.03;13.20;;;;;;;;;;5014264;28;20604;-39
2022/12/05 03:11:37;;;;;;;17.27;10.53;;;;;;;;;;5014540;28;20209;-39
2022/12/05 03:14:06;;;;;;;16.67;10.30;;;;;;;;;;5014333;28;20519;-39
2022/12/05 03:16:43;;;;;;;19.10;10.93;;;;;;;;;;5014425;28;20284;-39
2022/12/05 03:19:23;;;;;;;19.10;10.40;;;;;;;;;;5014317;28;20220;-39
2022/12/05 03:22:36;;;;;;;18.83;10.40;;;;;;;;;;5015493;28;20274;-39
2022/12/05 03:25:04;;;;;;;39.07;13.67;;;;;;;;;;5014682;28;20685;-38
2022/12/05 03:27:42;;;;;;;28.07;13.70;;;;;;;;;;5014934;28;20202;-39
2022/12/05 03:30:12;;;;;;;22.20;11.40;;;;;;;;;;5015191;28;20209;-39
2022/12/05 03:32:56;;;;;;;19.83;11.50;;;;;;;;;;5014295;28;20205;-39
2022/12/05 03:35:44;;;;;;;23.67;13.53;;;;;;;;;;5014319;28;20208;-39
2022/12/05 03:38:34;;;;;;;21.33;12.23;;;;;;;;;;5014163;28;20197;-39
2022/12/05 03:41:06;;;;;;;19.67;10.83;;;;;;;;;;5015587;28;20206;-40
2022/12/05 03:43:35;;;;;;;21.43;10.60;;;;;;;;;;5014331;28;20241;-39
2022/12/05 03:46:11;;;;;;;21.00;11.23;;;;;;;;;;5014828;28;20205;-39
2022/12/05 03:49:17;;;;;;;27.67;11.30;;;;;;;;;;5014375;28;20598;-40
2022/12/05 03:51:53;;;;;;;19.87;11.17;;;;;;;;;;5015020;28;20534;-38
2022/12/05 03:54:26;;;;;;;19.70;11.10;;;;;;;;;;5015070;28;20275;-39
2022/12/05 03:57:00;;;;;;;23.47;12.13;;;;;;;;;;5014101;28;20205;-38
2022/12/05 03:59:36;;;;;;;28.43;13.10;;;;;;;;;;5014682;28;20210;-39
2022/12/05 04:02:16;;;;;;;23.53;12.17;;;;;;;;;;5014618;28;20200;-39
2022/12/05 04:04:52;;;;;;;19.50;10.87;;;;;;;;;;5015121;28;20248;-39
2022/12/05 04:07:20;;;;;;;22.87;11.53;;;;;;;;;;5017737;28;20201;-38
2022/12/05 04:10:00;;;;;;;29.87;13.73;;;;;;;;;;5017742;28;20220;-39
2022/12/05 04:12:29;;;;;;;25.07;12.93;;;;;;;;;;5018444;28;20205;-38
2022/12/05 04:15:01;;;;;;;24.53;12.33;;;;;;;;;;5017799;28;20300;-38
2022/12/05 04:17:38;;;;;;;26.13;12.30;;;;;;;;;;5017583;28;20275;-38
2022/12/05 04:23:00;;;;;;;23.87;13.13;;;;;;;;;;5017315;28;20665;-39
2022/12/05 04:25:35;;;;;;;26.23;12.53;;;;;;;;;;5017017;28;20237;-38
2022/12/05 04:28:14;;;;;;;22.67;12.67;;;;;;;;;;5018320;28;20193;-39
2022/12/05 04:31:07;;;;;;;20.83;12.07;;;;;;;;;;5023031;28;20212;-39
2022/12/05 04:33:40;;;;;;;33.50;14.50;;;;;;;;;;5035258;28;20208;-38
2022/12/05 04:36:26;;;;;;;32.83;14.80;;;;;;;;;;5035960;28;20633;-38
2022/12/05 04:39:04;;;;;;;26.50;12.70;;;;;;;;;;5028627;28;20614;-39
2022/12/05 04:41:46;;;;;;;33.53;13.33;;;;;;;;;;5036499;28;20599;-39
2022/12/05 04:44:15;;;;;;;39.80;16.70;;;;;;;;;;5026981;28;20588;-40
2022/12/05 04:46:43;;;;;;;25.47;13.77;;;;;;;;;;5032162;28;20207;-40
2022/12/05 04:49:15;;;;;;;25.53;12.73;;;;;;;;;;5033328;28;20204;-42
2022/12/05 04:51:42;;;;;;;26.63;12.53;;;;;;;;;;5030193;28;20192;-40
2022/12/05 04:54:17;;;;;;;22.43;12.23;;;;;;;;;;5034981;28;20205;-39
2022/12/05 04:56:45;;;;;;;24.07;13.23;;;;;;;;;;5029124;28;20244;-39
2022/12/05 04:59:12;;;;;;;30.83;15.60;;;;;;;;;;5027665;28;20224;-41
2022/12/05 05:01:44;;;;;;;31.50;14.37;;;;;;;;;;5035199;28;20213;-39
2022/12/05 05:04:20;;;;;;;42.53;16.23;;;;;;;;;;5031266;28;20216;-40
2022/12/05 05:06:46;;;;;;;34.00;15.10;;;;;;;;;;5032535;28;20216;-39
2022/12/05 05:09:14;;;;;;;30.97;13.70;;;;;;;;;;5027485;28;20685;-39
2022/12/05 05:11:40;;;;;;;29.53;15.77;;;;;;;;;;5030542;28;20229;-40
2022/12/05 05:14:07;;;;;;;29.03;13.73;;;;;;;;;;5036673;28;20235;-39
2022/12/05 05:16:39;;;;;;;28.40;12.97;;;;;;;;;;5034425;28;20259;-40
2022/12/05 05:19:08;;;;;;;25.53;13.77;;;;;;;;;;5036506;28;20233;-38
2022/12/05 05:21:37;;;;;;;22.77;12.53;;;;;;;;;;5035305;28;20562;-39
2022/12/05 05:24:06;;;;;;;32.50;16.00;;;;;;;;;;5034481;28;20678;-39
2022/12/05 05:26:35;;;;;;;30.30;14.93;;;;;;;;;;5035966;28;20589;-38
2022/12/05 05:29:03;;;;;;;45.13;17.50;;;;;;;;;;5051783;28;20267;-39
2022/12/05 05:31:29;;;;;;;39.30;15.83;;;;;;;;;;5035119;28;20573;-39
2022/12/05 05:33:57;;;;;;;31.63;14.70;;;;;;;;;;5035738;28;20233;-39
2022/12/05 05:36:25;;;;;;;35.57;15.73;;;;;;;;;;5036094;28;20292;-39
2022/12/05 05:38:55;;;;;;;30.27;14.63;;;;;;;;;;5035490;28;20600;-39
2022/12/05 05:41:30;;;;;;;31.20;15.37;;;;;;;;;;5027674;28;20666;-39
2022/12/05 05:43:58;;;;;;;24.77;13.60;;;;;;;;;;5016153;28;20543;-38
2022/12/05 05:46:27;;;;;;;25.50;12.87;;;;;;;;;;5014692;28;20564;-39
2022/12/05 05:48:55;;;;;;;25.97;13.67;;;;;;;;;;5015406;28;20221;-39
2022/12/05 05:51:24;;;;;;;36.90;16.57;;;;;;;;;;5020084;28;20221;-39
2022/12/05 05:53:51;;;;;;;30.53;14.60;;;;;;;;;;5034817;28;20684;-39
2022/12/05 05:56:19;;;;;;;30.47;15.30;;;;;;;;;;5033721;28;20235;-39
2022/12/05 05:58:54;;;;;;;30.07;14.10;;;;;;;;;;5032963;28;20232;-40
2022/12/05 06:01:21;;;;;;;32.17;16.07;;;;;;;;;;5033460;28;20232;-38
2022/12/05 06:03:49;;;;;;;31.70;14.80;;;;;;;;;;5034650;28;20233;-39
2022/12/05 06:06:17;;;;;;;27.33;13.80;;;;;;;;;;5034758;28;20716;-38
2022/12/05 06:08:45;;;;;;;26.07;13.73;;;;;;;;;;5034839;28;20221;-39
2022/12/05 06:11:19;;;;;;;31.70;14.13;;;;;;;;;;5029873;28;20227;-38
2022/12/05 06:13:54;;;;;;;34.43;15.20;;;;;;;;;;5021028;28;20372;-38
2022/12/05 06:16:21;;;;;;;37.60;16.43;;;;;;;;;;5035022;28;20307;-39
2022/12/05 06:18:48;;;;;;;31.33;14.63;;;;;;;;;;5034684;28;20240;-39
2022/12/05 06:21:16;;;;;;;39.13;17.67;;;;;;;;;;5035363;28;20209;-38
2022/12/05 06:23:43;;;;;;;34.27;17.13;;;;;;;;;;5035285;28;20252;-39
2022/12/05 06:26:12;;;;;;;70.27;37.13;;;;;;;;;;5033922;28;20306;-39
2022/12/05 06:28:40;;;;;;;26.07;14.50;;;;;;;;;;5032051;28;20545;-40
2022/12/05 06:31:15;;;;;;;38.27;18.10;;;;;;;;;;5034127;28;20200;-40
2022/12/05 06:33:42;;;;;;;30.17;15.87;;;;;;;;;;5033970;28;20626;-39
2022/12/05 06:36:11;;;;;;;29.20;15.70;;;;;;;;;;5033923;28;20219;-41
2022/12/05 06:38:39;;;;;;;35.33;16.23;;;;;;;;;;5033798;28;20205;-40
2022/12/05 06:41:14;;;;;;;44.60;18.77;;;;;;;;;;5034855;28;20214;-39
2022/12/05 06:43:41;;;;;;;52.70;20.17;;;;;;;;;;5035077;28;20193;-39
2022/12/05 06:46:10;;;;;;;42.97;17.60;;;;;;;;;;5034762;28;20686;-39
2022/12/05 06:48:38;;;;;;;29.00;15.00;;;;;;;;;;5035110;28;20209;-40
2022/12/05 06:51:09;;;;;;;30.23;15.20;;;;;;;;;;5034889;28;20208;-39
2022/12/05 06:53:37;;;;;;;28.87;15.97;;;;;;;;;;5017427;28;20200;-38
2022/12/05 06:56:07;;;;;;;26.23;13.23;;;;;;;;;;5035181;28;20214;-38
2022/12/05 06:58:34;;;;;;;26.27;13.90;;;;;;;;;;5035271;28;20192;-39
2022/12/05 07:03:49;;;;;;;25.13;15.03;;;;;;;;;;5035413;28;20211;-38
2022/12/05 07:06:16;;;;;;;42.43;16.77;;;;;;;;;;5034029;28;20217;-39
2022/12/05 07:08:43;;;;;;;50.50;17.50;;;;;;;;;;5035014;28;20212;-39
2022/12/05 07:11:10;;;;;;;38.30;16.00;;;;;;;;;;5034827;28;20630;-38
2022/12/05 07:13:37;;;;;;;37.73;15.90;;;;;;;;;;5034982;28;20622;-39
2022/12/05 07:16:05;;;;;;;31.23;14.67;;;;;;;;;;5035021;28;20209;-38
2022/12/05 07:18:34;;;;;;;29.60;16.07;;;;;;;;;;5034944;28;20204;-38
2022/12/05 07:21:03;;;;;;;24.40;14.57;;;;;;;;;;5034975;28;20223;-38
2022/12/05 07:23:39;;;;;;;25.77;13.60;;;;;;;;;;5035105;28;20282;-39
2022/12/05 07:26:07;;;;;;;29.87;17.30;;;;;;;;;;5035098;28;20256;-39
2022/12/05 07:28:35;;;;;;;27.30;14.20;;;;;;;;;;5035000;28;20274;-40
2022/12/05 07:31:06;;;;;;;58.70;24.67;;;;;;;;;;5034864;28;20214;-38
2022/12/05 07:33:34;;;;;;;36.53;17.20;;;;;;;;;;5034925;28;20184;-39
2022/12/05 07:36:04;;;;;;;36.00;20.67;;;;;;;;;;5034557;28;20200;-39
2022/12/05 07:38:31;;;;;;;42.60;22.30;;;;;;;;;;5034850;28;20250;-38
2022/12/05 07:40:58;;;;;;;48.83;30.00;;;;;;;;;;5038756;28;20283;-38
2022/12/05 07:43:25;;;;;;;35.40;18.73;;;;;;;;;;5038929;28;20625;-39
2022/12/05 07:45:51;;;;;;;24.50;14.03;;;;;;;;;;5039031;28;20216;-39
2022/12/05 07:48:19;;;;;;;24.00;12.60;;;;;;;;;;5038782;28;20212;-39
2022/12/05 07:50:46;;;;;;;23.73;13.07;;;;;;;;;;5038491;28;20208;-39
2022/12/05 07:53:13;;;;;;;25.17;13.23;;;;;;;;;;5038782;28;20200;-39
2022/12/05 07:55:39;;;;;;;28.40;13.97;;;;;;;;;;5038673;28;20296;-39
2022/12/05 07:58:06;;;;;;;40.30;17.03;;;;;;;;;;5038564;28;20216;-39
2022/12/05 08:00:33;;;;;;;40.93;17.03;;;;;;;;;;5038427;28;20211;-39
2022/12/05 08:03:02;;;;;;;38.93;16.83;;;;;;;;;;5038214;28;20225;-38
2022/12/05 08:05:29;;;;;;;28.67;14.93;;;;;;;;;;5038235;28;20224;-38
2022/12/05 08:07:56;;;;;;;28.80;12.63;;;;;;;;;;5038101;28;20668;-38
2022/12/05 08:10:23;;;;;;;117.60;46.10;;;;;;;;;;5038395;28;20212;-39
2022/12/05 08:12:50;;;;;;;27.23;14.27;;;;;;;;;;5038625;28;20212;-38
2022/12/05 08:15:17;;;;;;;23.40;13.47;;;;;;;;;;5038220;28;20209;-39
2022/12/05 08:17:44;;;;;;;18.17;11.20;;;;;;;;;;5038450;28;20740;-38
2022/12/05 08:20:11;;;;;;;18.10;10.57;;;;;;;;;;5038346;28;20205;-39
2022/12/05 08:22:38;;;;;;;41.10;16.23;;;;;;;;;;5038066;28;20201;-38
2022/12/05 08:25:06;;;;;;;27.30;13.60;;;;;;;;;;5037686;28;20233;-39
2022/12/05 08:27:33;;;;;;;24.67;12.80;;;;;;;;;;5037078;28;20201;-39
2022/12/05 08:30:00;;;;;;;27.77;14.13;;;;;;;;;;5038309;28;20573;-39
2022/12/05 08:32:27;;;;;;;16.93;10.80;;;;;;;;;;5037922;28;20259;-39
2022/12/05 08:34:54;;;;;;;53.57;26.50;;;;;;;;;;5037804;28;20227;-39
2022/12/05 08:37:21;;;;;;;46.70;25.17;;;;;;;;;;5037712;28;20262;-38
2022/12/05 08:39:48;;;;;;;21.67;13.37;;;;;;;;;;5037654;28;20230;-39
2022/12/05 08:42:15;;;;;;;19.63;11.87;;;;;;;;;;5037719;28;20205;-40
2022/12/05 08:44:41;;;;;;;34.30;18.47;;;;;;;;;;5037500;28;20673;-39
2022/12/05 08:47:09;;;;;;;22.73;13.47;;;;;;;;;;5037508;28;20220;-39
2022/12/05 08:49:35;;;;;;;43.93;17.57;;;;;;;;;;5037728;28;20235;-39
2022/12/05 08:52:02;;;;;;;34.37;19.00;;;;;;;;;;5036760;28;20216;-39
2022/12/05 08:54:29;;;;;;;25.23;12.73;;;;;;;;;;5037620;28;20197;-39
2022/12/05 08:56:58;;;;;;;20.97;11.93;;;;;;;;;;5037232;28;20205;-39
2022/12/05 08:59:24;;;;;;;27.23;14.43;;;;;;;;;;5037448;28;20649;-39
2022/12/05 09:01:52;;;;;;;23.43;11.83;;;;;;;;;;5036998;28;20575;-39
2022/12/05 09:04:19;;;;;;;18.83;12.20;;;;;;;;;;5037385;28;20223;-39
2022/12/05 09:06:46;;;;;;;19.33;11.73;;;;;;;;;;5037168;28;20557;-39
2022/12/05 09:09:12;;;;;;;18.13;10.50;;;;;;;;;;5036933;28;20204;-39
2022/12/05 09:11:45;;;;;;;17.80;8.90;;;;;;;;;;5045334;28;20648;-39
2022/12/05 09:14:12;;;;;;;17.83;10.23;;;;;;;;;;5057219;28;20192;-39
2022/12/05 09:16:39;;;;;;;64.13;20.17;;;;;;;;;;5057058;28;20234;-39
2022/12/05 09:19:13;;;;;;;42.07;15.47;;;;;;;;;;5056742;28;20214;-40
2022/12/05 09:21:40;;;;;;;30.17;12.53;;;;;;;;;;5057114;28;20204;-39
2022/12/05 09:24:10;;;;;;;21.60;10.73;;;;;;;;;;5056782;28;20301;-39
2022/12/05 09:26:38;;;;;;;22.70;11.13;;;;;;;;;;5056048;28;20529;-39
2022/12/05 09:29:04;;;;;;;18.27;11.70;;;;;;;;;;5056658;28;20200;-39
2022/12/05 09:31:37;;;;;;;18.27;9.90;;;;;;;;;;5056771;28;20262;-39
2022/12/05 09:34:04;;;;;;;15.47;9.33;;;;;;;;;;5056679;28;20230;-39
2022/12/05 09:36:31;;;;;;;18.40;10.60;;;;;;;;;;5056622;28;20261;-39
2022/12/05 09:39:02;;;;;;;40.10;14.93;;;;;;;;;;5056679;28;20212;-40
2022/12/05 09:42:03;;;;;;;22.47;10.33;;;;;;;;;;5056838;28;20211;-39
2022/12/05 09:44:40;;;;;;;17.67;10.43;;;;;;;;;;5056710;28;20199;-39
2022/12/05 09:47:14;;;;;;;16.43;9.60;;;;;;;;;;5056954;28;20220;-39
2022/12/05 09:49:48;;;;;;;18.17;9.93;;;;;;;;;;5057086;28;20199;-39
2022/12/05 09:52:31;;;;;;;15.43;9.20;;;;;;;;;;5055284;28;20614;-39
2022/12/05 09:55:05;;;;;;;22.77;14.13;;;;;;;;;;5055983;28;20189;-39
2022/12/05 09:57:36;;;;;;;19.73;10.43;;;;;;;;;;5056731;28;20272;-40
2022/12/05 10:00:06;;;;;;;15.60;9.83;;;;;;;;;;5056498;28;20215;-39
2022/12/05 10:02:36;;;;;;;16.27;9.90;;;;;;;;;;5056383;28;20224;-39
2022/12/05 10:05:07;;;;;;;20.43;11.03;;;;;;;;;;5055180;28;20551;-39
2022/12/05 10:07:49;;;;;;;29.10;13.97;;;;;;;;;;5055141;28;20231;-39
2022/12/05 10:10:44;;;;;;;18.47;9.87;;;;;;;;;;5049836;28;20237;-39
2022/12/05 10:13:47;;;;;;;16.43;10.47;;;;;;;;;;5028021;28;20204;-39
2022/12/05 10:16:22;;;;;;;15.13;9.27;;;;;;;;;;5014551;28;20205;-40
2022/12/05 10:18:56;;;;;;;20.73;13.33;;;;;;;;;;4998300;28;20609;-40
2022/12/05 10:21:30;;;;;;;12.93;8.43;;;;;;;;;;5014906;28;20614;-39
2022/12/05 10:24:00;;;;;;;13.90;8.67;;;;;;;;;;4997829;28;20699;-40
2022/12/05 10:26:33;;;;;;;13.87;8.43;;;;;;;;;;4998100;28;20240;-39
2022/12/05 10:29:10;;;;;;;15.10;10.17;;;;;;;;;;5014447;28;20224;-39
2022/12/05 10:31:37;;;;;;;12.40;8.47;;;;;;;;;;4998076;28;20200;-39
2022/12/05 10:34:16;;;;;;;15.60;8.70;;;;;;;;;;4998268;28;20205;-40
2022/12/05 10:37:09;;;;;;;14.63;9.10;;;;;;;;;;4998146;28;20247;-40
2022/12/05 10:39:36;;;;;;;26.40;11.53;;;;;;;;;;5014431;28;20213;-40
2022/12/05 10:42:04;;;;;;;17.60;9.33;;;;;;;;;;5014063;28;20211;-39
2022/12/05 10:44:32;;;;;;;17.60;9.80;;;;;;;;;;4998064;28;20511;-39
2022/12/05 10:47:00;;;;;;;12.97;7.40;;;;;;;;;;4997907;28;20217;-39
2022/12/05 10:49:28;;;;;;;24.77;14.00;;;;;;;;;;5014013;28;20205;-39
2022/12/05 10:51:55;;;;;;;66.73;33.07;;;;;;;;;;5025135;28;20284;-39
2022/12/05 10:54:25;;;;;;;25.00;14.17;;;;;;;;;;5035393;28;20205;-39
2022/12/05 10:56:52;;;;;;;75.83;36.50;;;;;;;;;;5035120;28;20234;-39
2022/12/05 10:59:24;;;;;;;141.17;59.23;;;;;;;;;;5035258;28;20347;-39
2022/12/05 11:01:57;;;;;;;29.50;16.30;;;;;;;;;;5035280;28;20212;-39
2022/12/05 11:04:29;;;;;;;65.67;27.67;;;;;;;;;;5034433;28;20541;-40
2022/12/05 11:07:04;;;;;;;60.07;25.13;;;;;;;;;;5034113;28;20228;-39
2022/12/05 11:09:34;;;;;;;20.63;11.17;;;;;;;;;;5035063;28;20584;-39
2022/12/05 11:12:24;;;;;;;63.17;25.27;;;;;;;;;;5035573;28;20533;-39
2022/12/05 11:15:01;;;;;;;76.77;33.47;;;;;;;;;;5034473;28;20645;-39
2022/12/05 11:17:34;;;;;;;77.13;37.90;;;;;;;;;;5035467;28;20251;-39
2022/12/05 11:20:23;;;;;;;18.07;11.73;;;;;;;;;;5035381;28;20212;-39
2022/12/05 11:22:51;;;;;;;46.90;24.63;;;;;;;;;;5034860;28;20637;-39
2022/12/05 11:25:29;;;;;;;27.07;16.03;;;;;;;;;;5034891;28;20537;-39
2022/12/05 11:27:58;;;;;;;14.17;8.70;;;;;;;;;;5034851;28;20299;-39
2022/12/05 11:30:28;;;;;;;32.13;14.43;;;;;;;;;;5035216;28;20205;-39
2022/12/05 11:33:21;;;;;;;23.73;11.00;;;;;;;;;;5034576;28;20239;-39
2022/12/05 11:35:49;;;;;;;14.70;8.93;;;;;;;;;;5034647;28;20204;-39
2022/12/05 11:38:17;;;;;;;27.73;15.93;;;;;;;;;;5033874;28;20215;-39
2022/12/05 11:40:54;;;;;;;20.20;11.30;;;;;;;;;;5034948;28;20220;-41
2022/12/05 11:43:49;;;;;;;14.13;9.73;;;;;;;;;;5033863;28;20232;-40
2022/12/05 11:46:39;;;;;;;11.93;6.97;;;;;;;;;;5035284;28;20224;-40
2022/12/05 11:49:30;;;;;;;10.83;6.77;;;;;;;;;;5033989;28;20219;-39
2022/12/05 11:52:11;;;;;;;10.47;7.57;;;;;;;;;;5034639;28;20205;-39
2022/12/05 11:54:43;;;;;;;16.10;10.90;;;;;;;;;;5034983;28;20188;-39
2022/12/05 11:57:37;;;;;;;15.17;8.57;;;;;;;;;;5034640;28;20216;-40
2022/12/05 12:00:41;;;;;;;23.63;10.57;;;;;;;;;;5033820;28;20255;-40
2022/12/05 12:03:41;;;;;;;21.67;9.37;;;;;;;;;;5034612;28;20204;-39
2022/12/05 12:06:38;;;;;;;19.07;8.57;;;;;;;;;;5033768;28;20537;-39
2022/12/05 12:09:19;;;;;;;17.50;8.70;;;;;;;;;;5027496;28;20205;-39
2022/12/05 12:11:59;;;;;;;31.27;16.07;;;;;;;;;;5034868;28;20212;-40
2022/12/05 12:14:52;;;;;;;12.23;8.07;;;;;;;;;;5033687;28;20193;-40
2022/12/05 12:17:35;;;;;;;13.33;6.80;;;;;;;;;;5034522;28;20271;-39
2022/12/05 12:20:35;;;;;;;12.47;7.57;;;;;;;;;;5048179;28;20220;-41
2022/12/05 12:23:08;;;;;;;13.17;8.30;;;;;;;;;;4997032;28;20308;-39
2022/12/05 12:26:03;;;;;;;18.30;8.53;;;;;;;;;;5014528;28;20252;-39
2022/12/05 12:28:52;;;;;;;16.77;8.30;;;;;;;;;;5017291;28;20565;-39
2022/12/05 12:31:45;;;;;;;13.20;7.73;;;;;;;;;;5016102;28;20226;-39
2022/12/05 12:34:37;;;;;;;18.20;9.20;;;;;;;;;;5034558;28;20558;-40
2022/12/05 12:37:19;;;;;;;24.33;14.23;;;;;;;;;;5036331;28;20669;-42
2022/12/05 12:39:57;;;;;;;14.93;9.83;;;;;;;;;;5037025;28;20307;-39
2022/12/05 12:42:55;;;;;;;15.00;8.90;;;;;;;;;;5035733;28;20228;-41
2022/12/05 12:45:38;;;;;;;13.83;9.07;;;;;;;;;;5035774;28;20307;-39
2022/12/05 12:48:27;;;;;;;25.07;11.73;;;;;;;;;;5035525;28;20236;-41
2022/12/05 12:50:54;;;;;;;25.23;11.80;;;;;;;;;;5036580;28;20235;-41
2022/12/05 12:53:50;;;;;;;18.97;10.20;;;;;;;;;;5035392;28;20269;-39
2022/12/05 12:56:24;;;;;;;15.03;9.10;;;;;;;;;;5035438;28;20312;-40
2022/12/05 12:59:14;;;;;;;11.60;7.53;;;;;;;;;;5036094;28;20224;-39
2022/12/05 13:01:56;;;;;;;12.67;8.47;;;;;;;;;;5035808;28;20235;-39
2022/12/05 13:04:33;;;;;;;13.97;9.57;;;;;;;;;;5035655;28;20263;-41
2022/12/05 13:07:05;;;;;;;13.07;8.27;;;;;;;;;;5043248;28;20232;-41
2022/12/05 13:09:37;;;;;;;13.57;8.13;;;;;;;;;;5033282;28;20224;-41
2022/12/05 13:12:08;;;;;;;10.97;7.70;;;;;;;;;;5035299;28;20220;-49
2022/12/05 13:14:37;;;;;;;12.60;8.03;;;;;;;;;;5041363;28;20551;-44
2022/12/05 13:17:05;;;;;;;20.00;10.17;;;;;;;;;;5015841;28;20295;-42
2022/12/05 13:19:42;;;;;;;20.37;10.60;;;;;;;;;;5016407;28;20205;-46
2022/12/05 13:22:10;;;;;;;21.03;10.43;;;;;;;;;;5016877;28;20276;-41
2022/12/05 13:24:37;;;;;;;18.13;9.70;;;;;;;;;;5016520;28;20313;-42
2022/12/05 13:27:06;;;;;;;17.07;9.23;;;;;;;;;;5036507;28;20609;-43
2022/12/05 13:29:38;;;;;;;11.67;8.67;;;;;;;;;;5036741;28;20201;-44
2022/12/05 13:32:07;;;;;;;11.73;8.37;;;;;;;;;;5035860;28;20272;-43
2022/12/05 13:34:44;;;;;;;11.47;8.17;;;;;;;;;;5035701;28;20274;-43
2022/12/05 13:43:18;;;;;;;27.93;11.97;;;;;;;;;;5035833;28;20204;-43
2022/12/05 13:46:17;;;;;;;18.90;9.67;;;;;;;;;;5026756;28;20224;-44
2022/12/05 13:48:47;;;;;;;17.20;9.90;;;;;;;;;;5035357;28;20720;-43
2022/12/05 13:51:50;;;;;;;17.50;9.10;;;;;;;;;;5020600;28;20225;-43
2022/12/05 13:54:20;;;;;;;16.07;11.90;;;;;;;;;;4993503;28;20237;-41
2022/12/05 13:56:57;;;;;;;12.40;8.70;;;;;;;;;;4994343;28;20222;-44
2022/12/05 14:00:08;;;;;;;13.30;8.97;;;;;;;;;;4993785;28;20214;-46
2022/12/05 14:02:40;;;;;;;12.50;7.97;;;;;;;;;;4898595;29;20222;-43
2022/12/05 14:05:37;;;;;;;21.27;13.67;;;;;;;;;;4983082;28;20217;-43
2022/12/05 14:08:23;;;;;;;31.80;13.07;;;;;;;;;;4993710;28;20233;-43
2022/12/05 14:10:50;;;;;;;26.40;12.23;;;;;;;;;;4972919;28;20233;-45
2022/12/05 14:13:17;;;;;;;25.27;10.93;;;;;;;;;;4983058;28;20289;-44
2022/12/05 14:15:44;;;;;;;16.70;9.23;;;;;;;;;;4979638;28;20213;-40
2022/12/05 14:18:17;;;;;;;15.17;9.00;;;;;;;;;;4977674;28;20237;-43
2022/12/05 14:21:23;;;;;;;94.13;46.33;;;;;;;;;;4993523;28;20635;-44
2022/12/05 14:24:12;;;;;;;16.47;10.37;;;;;;;;;;4993735;28;20323;-44
2022/12/05 14:26:55;;;;;;;12.70;8.50;;;;;;;;;;4993100;28;20245;-43
2022/12/05 14:29:32;;;;;;;11.87;7.80;;;;;;;;;;5013535;28;20228;-43
2022/12/05 14:32:24;;;;;;;13.77;8.87;;;;;;;;;;5015100;28;20678;-44
2022/12/05 14:35:00;;;;;;;21.17;12.03;;;;;;;;;;5014842;28;20221;-43
2022/12/05 14:37:29;;;;;;;30.37;12.57;;;;;;;;;;5034752;28;20216;-43
2022/12/05 14:39:58;;;;;;;39.43;19.80;;;;;;;;;;5034559;28;20298;-44
2022/12/05 14:42:34;;;;;;;22.10;12.97;;;;;;;;;;5033321;28;20224;-44
2022/12/05 14:45:37;;;;;;;14.93;9.67;;;;;;;;;;5032291;28;20311;-43
2022/12/05 14:48:14;;;;;;;124.47;58.80;;;;;;;;;;5033290;28;20235;-44
2022/12/05 14:50:42;;;;;;;21.77;13.43;;;;;;;;;;5031767;28;20223;-43
2022/12/05 14:53:23;;;;;;;16.83;10.20;;;;;;;;;;5028946;28;20678;-44
2022/12/05 14:55:59;;;;;;;22.67;12.97;;;;;;;;;;5034037;28;20212;-43
2022/12/05 14:58:41;;;;;;;41.90;19.63;;;;;;;;;;5034009;28;20224;-46
2022/12/05 15:01:41;;;;;;;76.13;36.20;;;;;;;;;;5014923;28;20229;-43
2022/12/05 15:04:10;;;;;;;59.83;27.90;;;;;;;;;;5014574;28;20271;-42
2022/12/05 15:06:51;;;;;;;38.53;16.07;;;;;;;;;;5014132;28;20692;-43
2022/12/05 15:09:32;;;;;;;48.97;23.63;;;;;;;;;;5013632;28;20224;-43